Time;durP1;ratioP1;P1;durP2;ratioP2;P2;SDS_P1;SDS_P2;PMS_P1;PMS_P2;Temp;Humidity;BMP_temperature;BMP_pressure;BME280_temperature;BME280_humidity;BME280_pressure;Samples;Min_cycle;Max_cycle;Signal;HPM_P1;HPM_P2
2023/07/19 00:02:24;;;;;;;8.48;4.43;;;;;;;19.83;77.67;101320.16;5099684;28;20427;-64
2023/07/19 00:04:52;;;;;;;14.23;4.95;;;;;;;19.77;78.17;101315.88;5115357;28;20050;-63
2023/07/19 00:07:20;;;;;;;10.60;5.05;;;;;;;19.74;78.51;101314.56;5114925;28;20051;-63
2023/07/19 00:09:48;;;;;;;8.02;4.18;;;;;;;19.71;78.77;101311.66;5115159;28;20108;-63
2023/07/19 00:12:16;;;;;;;10.90;4.47;;;;;;;19.70;78.66;101305.31;5113908;28;20043;-63
2023/07/19 00:14:43;;;;;;;10.70;4.68;;;;;;;19.69;78.66;101305.63;5105595;28;20051;-64
2023/07/19 00:17:11;;;;;;;9.73;4.72;;;;;;;19.68;78.78;101298.47;5096451;28;20055;-64
2023/07/19 00:19:39;;;;;;;11.30;4.32;;;;;;;19.69;78.55;101297.31;5115241;28;20395;-62
2023/07/19 00:22:08;;;;;;;10.00;4.03;;;;;;;19.70;78.60;101291.47;5115325;28;20057;-63
2023/07/19 00:24:36;;;;;;;12.23;4.10;;;;;;;19.70;78.60;101294.25;5078352;28;20047;-64
2023/07/19 00:27:04;;;;;;;10.90;3.90;;;;;;;19.70;78.63;101293.41;5113196;28;20064;-63
2023/07/19 00:29:32;;;;;;;8.80;4.03;;;;;;;19.69;78.46;101289.03;5114227;28;20050;-62
2023/07/19 00:31:59;;;;;;;8.88;4.45;;;;;;;19.69;78.42;101294.56;5090440;28;20074;-61
2023/07/19 00:34:27;;;;;;;8.32;4.07;;;;;;;19.67;78.41;101285.72;5114105;28;20118;-63
2023/07/19 00:36:59;;;;;;;8.65;4.15;;;;;;;19.67;78.38;101288.50;5095020;28;20054;-63
2023/07/19 00:39:27;;;;;;;6.93;3.75;;;;;;;19.65;78.38;101274.16;5114755;28;20040;-62
2023/07/19 00:41:57;;;;;;;10.90;4.05;;;;;;;19.62;78.29;101274.81;5095921;28;20052;-63
2023/07/19 00:44:24;;;;;;;6.57;3.40;;;;;;;19.63;78.43;101268.16;5096248;28;20051;-63
2023/07/19 00:46:53;;;;;;;10.73;4.40;;;;;;;19.63;78.63;101266.22;5070335;28;20051;-63
2023/07/19 00:49:20;;;;;;;15.18;5.00;;;;;;;19.57;78.83;101261.94;5079980;28;20046;-63
2023/07/19 00:51:48;;;;;;;7.95;3.45;;;;;;;19.46;79.55;101255.88;5095565;28;20047;-63
2023/07/19 00:54:16;;;;;;;7.20;3.67;;;;;;;19.44;79.84;101247.09;5114535;28;20043;-64
2023/07/19 00:56:46;;;;;;;10.88;4.22;;;;;;;19.46;79.75;101246.75;5095766;28;20067;-65
2023/07/19 00:59:14;;;;;;;10.23;4.07;;;;;;;19.43;79.98;101250.97;5067493;28;20514;-63
2023/07/19 01:01:45;;;;;;;10.93;3.92;;;;;;;19.43;80.23;101250.97;5079988;28;20039;-64
2023/07/19 01:04:13;;;;;;;9.00;4.13;;;;;;;19.43;80.37;101242.69;5113098;28;20055;-64
2023/07/19 01:06:42;;;;;;;7.43;3.80;;;;;;;19.44;80.25;101236.03;5095879;28;20084;-64
2023/07/19 01:09:12;;;;;;;9.57;4.10;;;;;;;19.43;80.26;101234.41;5079567;28;20050;-63
2023/07/19 01:11:41;;;;;;;7.85;3.60;;;;;;;19.37;80.45;101238.44;5095960;28;20388;-63
2023/07/19 01:14:08;;;;;;;11.48;4.40;;;;;;;19.31;80.76;101237.78;5113009;28;20100;-62
2023/07/19 01:16:36;;;;;;;6.80;4.00;;;;;;;19.24;81.64;101237.41;5095290;28;20047;-64
2023/07/19 01:19:05;;;;;;;7.32;4.25;;;;;;;19.22;82.01;101241.59;5113751;28;20475;-64
2023/07/19 01:21:32;;;;;;;11.25;4.05;;;;;;;19.18;82.26;101237.84;5079296;28;20052;-63
2023/07/19 01:24:01;;;;;;;7.97;3.50;;;;;;;19.20;82.18;101235.59;5096207;28;20048;-65
2023/07/19 01:26:29;;;;;;;13.15;4.00;;;;;;;19.22;81.84;101234.16;5094233;28;20055;-63
2023/07/19 01:28:58;;;;;;;11.07;4.45;;;;;;;19.20;82.11;101230.06;5114538;28;20050;-64
2023/07/19 01:31:27;;;;;;;7.57;4.07;;;;;;;19.16;82.24;101230.69;5095553;28;20517;-62
2023/07/19 01:33:55;;;;;;;7.50;3.97;;;;;;;19.20;82.21;101221.78;5114800;28;20040;-63
2023/07/19 01:36:24;;;;;;;7.10;3.83;;;;;;;19.26;81.80;101232.34;5113803;28;20051;-61
2023/07/19 01:38:53;;;;;;;9.70;4.80;;;;;;;19.31;81.38;101220.34;5076922;28;20040;-63
2023/07/19 01:41:21;;;;;;;8.25;4.22;;;;;;;19.35;81.03;101213.06;5093229;28;20049;-63
2023/07/19 01:43:49;;;;;;;11.68;4.90;;;;;;;19.35;81.10;101219.41;5076155;28;20051;-63
2023/07/19 01:46:17;;;;;;;9.52;4.53;;;;;;;19.32;81.11;101222.81;5113130;28;20092;-63
2023/07/19 01:48:45;;;;;;;9.38;4.35;;;;;;;19.32;81.04;101225.56;5112724;28;20052;-63
2023/07/19 01:51:13;;;;;;;12.10;4.95;;;;;;;19.30;81.05;101229.78;5096597;28;20043;-63
2023/07/19 01:53:41;;;;;;;9.57;4.40;;;;;;;19.29;80.87;101233.66;5099829;28;20046;-63
2023/07/19 01:56:09;;;;;;;8.07;4.07;;;;;;;19.27;80.59;101220.19;5096388;28;20055;-63
2023/07/19 01:58:37;;;;;;;8.35;4.00;;;;;;;19.27;80.88;101230.44;5095945;28;20043;-62
2023/07/19 02:01:05;;;;;;;8.13;3.85;;;;;;;19.28;80.66;101223.75;5112742;28;20044;-62
2023/07/19 02:03:33;;;;;;;8.80;4.03;;;;;;;19.29;80.87;101219.84;5115507;28;20040;-64
2023/07/19 02:06:01;;;;;;;11.65;4.25;;;;;;;19.30;80.63;101216.78;5115251;28;20047;-63
2023/07/19 02:08:29;;;;;;;7.72;3.50;;;;;;;19.31;80.58;101223.13;5099339;28;20530;-62
2023/07/19 02:10:57;;;;;;;8.77;4.03;;;;;;;19.29;80.91;101217.94;5115988;28;20570;-62
2023/07/19 02:13:25;;;;;;;8.38;4.10;;;;;;;19.27;80.82;101222.97;5115262;28;20424;-63
2023/07/19 02:15:53;;;;;;;6.60;3.63;;;;;;;19.26;80.76;101218.53;5117489;28;20081;-63
2023/07/19 02:18:22;;;;;;;8.10;3.72;;;;;;;19.26;80.61;101217.75;5116294;28;20047;-62
2023/07/19 02:20:53;;;;;;;9.50;4.20;;;;;;;19.24;80.78;101208.94;5117430;28;20059;-64
2023/07/19 02:23:23;;;;;;;10.57;4.40;;;;;;;19.20;81.21;101219.03;5115778;28;20039;-64
2023/07/19 02:25:51;;;;;;;9.20;3.60;;;;;;;19.16;81.36;101214.09;5098270;28;20510;-62
2023/07/19 02:28:20;;;;;;;9.65;3.97;;;;;;;19.16;81.36;101205.81;5115495;28;20047;-64
2023/07/19 02:30:48;;;;;;;9.18;4.22;;;;;;;19.14;81.48;101205.31;5116066;28;20046;-64
2023/07/19 02:33:16;;;;;;;10.07;4.40;;;;;;;19.10;81.23;101204.34;5116687;28;20051;-63
2023/07/19 02:35:44;;;;;;;7.63;3.78;;;;;;;19.08;81.50;101197.50;5115474;28;20043;-65
2023/07/19 02:38:12;;;;;;;9.55;4.55;;;;;;;19.07;81.50;101204.97;5106663;28;20432;-65
2023/07/19 02:40:41;;;;;;;7.45;3.92;;;;;;;19.05;81.63;101196.19;5095288;28;20055;-63
2023/07/19 02:43:11;;;;;;;9.75;4.28;;;;;;;19.02;82.06;101191.28;5112856;28;20536;-66
2023/07/19 02:45:39;;;;;;;14.30;4.60;;;;;;;19.00;81.86;101189.97;5116459;28;20047;-63
2023/07/19 02:48:07;;;;;;;11.15;4.70;;;;;;;19.01;82.06;101208.19;5115201;28;20048;-63
2023/07/19 02:50:36;;;;;;;9.73;4.65;;;;;;;18.96;82.23;101200.03;5094474;28;20044;-63
2023/07/19 02:53:03;;;;;;;8.63;4.75;;;;;;;18.91;82.57;101215.59;5115168;28;20039;-63
2023/07/19 02:55:31;;;;;;;10.30;4.53;;;;;;;18.85;82.81;101214.06;5115478;28;20475;-64
2023/07/19 02:57:59;;;;;;;11.98;4.60;;;;;;;18.82;83.16;101208.38;5115081;28;20128;-64
2023/07/19 03:00:27;;;;;;;9.23;4.10;;;;;;;18.76;83.74;101216.00;5116597;28;20047;-63
2023/07/19 03:02:55;;;;;;;12.07;5.28;;;;;;;18.72;84.23;101220.47;5080359;28;20040;-63
2023/07/19 03:05:23;;;;;;;12.75;4.85;;;;;;;18.66;84.51;101210.66;5116278;28;20052;-62
2023/07/19 03:07:51;;;;;;;12.82;4.72;;;;;;;18.62;85.01;101215.19;5115047;28;20047;-63
2023/07/19 03:10:19;;;;;;;10.98;4.55;;;;;;;18.58;85.20;101212.22;5115443;28;20047;-62
2023/07/19 03:12:47;;;;;;;11.25;4.55;;;;;;;18.58;84.99;101215.00;5114511;28;20058;-63
2023/07/19 03:15:15;;;;;;;14.43;5.43;;;;;;;18.56;84.72;101211.72;5114135;28;20050;-64
2023/07/19 03:17:43;;;;;;;10.23;5.00;;;;;;;18.52;84.42;101213.50;5098461;28;20496;-63
2023/07/19 03:20:12;;;;;;;11.65;5.03;;;;;;;18.50;84.55;101211.03;5095377;28;20043;-63
2023/07/19 03:22:40;;;;;;;10.88;4.80;;;;;;;18.51;84.85;101211.84;5094795;28;20105;-64
2023/07/19 03:25:08;;;;;;;10.82;4.78;;;;;;;18.45;84.88;101213.13;5097681;28;20055;-63
2023/07/19 03:27:36;;;;;;;8.75;4.60;;;;;;;18.41;84.83;101214.84;5115200;28;20062;-61
2023/07/19 03:30:06;;;;;;;16.65;4.80;;;;;;;18.39;84.89;101217.91;5114493;28;20096;-62
2023/07/19 03:32:34;;;;;;;8.77;4.47;;;;;;;18.40;84.85;101210.44;5114188;28;20068;-65
2023/07/19 03:35:03;;;;;;;10.77;4.28;;;;;;;18.40;84.56;101218.72;5115477;28;20047;-64
2023/07/19 03:37:31;;;;;;;11.93;4.38;;;;;;;18.41;84.47;101217.63;5113623;28;20040;-65
2023/07/19 03:39:59;;;;;;;10.52;4.20;;;;;;;18.43;84.44;101215.38;5114069;28;20104;-64
2023/07/19 03:42:27;;;;;;;10.98;4.38;;;;;;;18.44;84.23;101225.25;5096244;28;20108;-64
2023/07/19 03:44:55;;;;;;;13.82;4.30;;;;;;;18.44;84.41;101226.06;5115271;28;20074;-64
2023/07/19 03:47:25;;;;;;;8.70;4.32;;;;;;;18.46;84.49;101234.84;5115710;28;20045;-64
2023/07/19 03:49:54;;;;;;;8.20;4.10;;;;;;;18.50;83.93;101218.50;5096502;28;20035;-64
2023/07/19 03:52:22;;;;;;;10.60;3.85;;;;;;;18.51;84.19;101217.38;5113999;28;20039;-63
2023/07/19 03:54:50;;;;;;;7.80;3.42;;;;;;;18.52;84.26;101221.78;5115573;28;20513;-62
2023/07/19 03:57:19;;;;;;;9.25;3.90;;;;;;;18.51;84.67;101225.66;5098873;28;20403;-63
2023/07/19 03:59:47;;;;;;;9.35;4.85;;;;;;;18.48;84.58;101220.75;5115414;28;20047;-63
2023/07/19 04:02:16;;;;;;;9.02;3.88;;;;;;;18.44;84.41;101209.50;5099049;28;20070;-62
2023/07/19 04:04:44;;;;;;;8.20;4.10;;;;;;;18.44;84.42;101219.75;5130684;28;20075;-63
2023/07/19 04:07:11;;;;;;;8.13;3.70;;;;;;;18.44;84.63;101220.56;5130566;28;20067;-61
2023/07/19 04:09:39;;;;;;;10.93;3.85;;;;;;;18.45;85.22;101218.63;5086753;28;20480;-63
2023/07/19 04:12:08;;;;;;;9.68;3.78;;;;;;;18.46;85.99;101223.00;5113478;28;20062;-64
2023/07/19 04:14:35;;;;;;;12.52;3.80;;;;;;;18.46;85.91;101220.25;5100724;28;20091;-59
2023/07/19 04:17:04;;;;;;;7.80;4.05;;;;;;;18.46;86.21;101218.31;5124123;28;20116;-61
2023/07/19 04:19:31;;;;;;;7.60;3.67;;;;;;;18.45;86.37;101218.63;5084532;28;20166;-64
2023/07/19 04:22:00;;;;;;;6.38;3.47;;;;;;;18.46;86.22;101207.25;5093576;28;20059;-63
2023/07/19 04:24:27;;;;;;;7.25;3.33;;;;;;;18.48;86.11;101212.47;5094298;28;20390;-62
2023/07/19 04:26:55;;;;;;;8.15;3.17;;;;;;;18.55;85.84;101212.06;5110182;28;20408;-63
2023/07/19 04:29:23;;;;;;;8.40;3.53;;;;;;;18.58;85.86;101211.41;5112435;28;20052;-64
2023/07/19 04:31:51;;;;;;;7.15;3.67;;;;;;;18.58;85.82;101212.22;5112627;28;20054;-64
2023/07/19 04:34:20;;;;;;;10.57;4.15;;;;;;;18.61;85.82;101208.03;5079965;28;20052;-64
2023/07/19 04:36:48;;;;;;;11.57;3.70;;;;;;;18.61;85.93;101208.84;5114224;28;20063;-65
2023/07/19 04:39:16;;;;;;;10.65;3.92;;;;;;;18.62;85.95;101215.19;5112540;28;20403;-62
2023/07/19 04:41:45;;;;;;;10.40;3.90;;;;;;;18.61;86.09;101214.34;5110963;28;20395;-64
2023/07/19 04:44:15;;;;;;;7.47;3.40;;;;;;;18.61;86.11;101214.34;5111473;27;20123;-65
2023/07/19 04:46:43;;;;;;;6.50;3.50;;;;;;;18.61;86.05;101224.59;5103554;28;20504;-65
2023/07/19 04:49:11;;;;;;;5.35;3.28;;;;;;;18.61;85.85;101222.63;5096175;28;20047;-63
2023/07/19 04:51:39;;;;;;;6.03;3.47;;;;;;;18.65;85.62;101225.59;5113251;28;20078;-63
2023/07/19 04:54:07;;;;;;;8.27;3.70;;;;;;;18.69;85.34;101224.66;5113963;28;20048;-63
2023/07/19 04:56:36;;;;;;;9.85;3.40;;;;;;;18.71;85.36;101225.19;5096338;28;20509;-62
2023/07/19 04:59:04;;;;;;;9.45;3.72;;;;;;;18.72;84.89;101229.56;5113685;28;20054;-66
2023/07/19 05:01:32;;;;;;;10.13;3.53;;;;;;;18.71;85.06;101227.09;5095721;28;20043;-64
2023/07/19 05:04:00;;;;;;;11.57;4.47;;;;;;;18.67;85.87;101232.44;5096293;28;20089;-63
2023/07/19 05:06:29;;;;;;;14.13;4.57;;;;;;;18.66;86.03;101232.75;5063275;28;20039;-64
2023/07/19 05:08:57;;;;;;;8.20;3.90;;;;;;;18.64;85.82;101230.31;5115255;28;20126;-63
2023/07/19 05:11:25;;;;;;;13.35;4.45;;;;;;;18.65;86.04;101239.41;5112727;28;20404;-62
2023/07/19 05:13:53;;;;;;;10.13;4.07;;;;;;;18.65;85.93;101237.44;5111534;28;20465;-62
2023/07/19 05:16:21;;;;;;;9.18;4.07;;;;;;;18.66;86.03;101239.06;5112895;28;20043;-64
2023/07/19 05:18:50;;;;;;;9.77;4.20;;;;;;;18.68;85.43;101225.78;5112912;28;20066;-63
2023/07/19 05:21:19;;;;;;;12.73;4.80;;;;;;;18.66;85.25;101233.56;5119830;28;20102;-61
2023/07/19 05:23:48;;;;;;;11.95;4.82;;;;;;;18.65;85.26;101225.59;5113357;28;20048;-64
2023/07/19 05:26:16;;;;;;;11.57;4.05;;;;;;;18.66;84.85;101235.50;5111365;28;20044;-64
2023/07/19 05:28:45;;;;;;;6.10;3.80;;;;;;;18.67;85.05;101235.19;5112220;28;20044;-62
2023/07/19 05:31:13;;;;;;;12.00;4.05;;;;;;;18.68;84.86;101234.06;5105446;28;20092;-63
2023/07/19 05:33:41;;;;;;;12.20;4.68;;;;;;;18.66;84.67;101235.50;5113435;28;20066;-64
2023/07/19 05:36:09;;;;;;;8.52;4.25;;;;;;;18.66;84.61;101233.56;5098310;28;20039;-63
2023/07/19 05:38:36;;;;;;;11.55;4.25;;;;;;;18.67;84.60;101235.19;5117639;28;20047;-63
2023/07/19 05:41:06;;;;;;;9.60;4.50;;;;;;;18.65;84.63;101231.13;5099670;28;20453;-62
2023/07/19 05:43:34;;;;;;;8.57;4.50;;;;;;;18.65;84.79;101237.44;5118038;28;20047;-64
2023/07/19 05:46:06;;;;;;;10.95;4.90;;;;;;;18.65;84.76;101236.66;5116530;28;20057;-63
2023/07/19 05:48:37;;;;;;;10.52;4.43;;;;;;;18.65;84.91;101222.84;5116984;28;20048;-64
2023/07/19 05:51:06;;;;;;;11.75;4.63;;;;;;;18.69;84.88;101232.94;4407746;28;10000658;-64
2023/07/19 05:53:34;;;;;;;10.63;5.05;;;;;;;18.69;84.58;101227.44;5104197;28;20053;-63
2023/07/19 05:56:02;;;;;;;10.43;5.00;;;;;;;18.70;84.68;101233.75;5109741;28;20092;-64
2023/07/19 05:58:30;;;;;;;11.00;4.90;;;;;;;18.69;84.64;101229.38;5104662;28;20051;-65
2023/07/19 06:00:58;;;;;;;10.27;4.95;;;;;;;18.70;84.56;101236.53;5114846;28;20043;-66
2023/07/19 06:03:26;;;;;;;11.35;4.57;;;;;;;18.70;84.50;101231.81;5094236;28;20047;-64
2023/07/19 06:05:54;;;;;;;10.85;5.03;;;;;;;18.75;84.36;101228.09;5115048;28;20084;-65
2023/07/19 06:08:22;;;;;;;10.90;4.90;;;;;;;18.76;84.51;101238.06;5095891;28;20411;-64
2023/07/19 06:10:52;;;;;;;11.18;4.40;;;;;;;18.77;84.45;101238.88;5113063;28;20058;-64
2023/07/19 06:13:21;;;;;;;8.82;4.72;;;;;;;18.78;84.32;101229.47;5113786;28;20546;-65
2023/07/19 06:15:49;;;;;;;12.00;4.90;;;;;;;18.77;84.51;101233.34;5113408;28;20051;-65
2023/07/19 06:18:17;;;;;;;10.93;4.50;;;;;;;18.80;84.49;101229.97;5114260;28;20050;-65
2023/07/19 06:20:45;;;;;;;13.93;5.00;;;;;;;18.82;84.69;101225.75;5113456;28;20064;-64
2023/07/19 06:23:13;;;;;;;8.40;4.57;;;;;;;18.84;84.29;101222.69;5110140;27;20073;-66
2023/07/19 06:25:42;;;;;;;11.30;5.07;;;;;;;18.86;84.30;101223.19;5112751;28;20055;-65
2023/07/19 06:28:09;;;;;;;11.90;5.15;;;;;;;18.87;84.33;101227.56;5110622;28;20059;-64
2023/07/19 06:30:37;;;;;;;10.65;5.25;;;;;;;18.89;84.13;101230.84;5112412;28;20050;-66
2023/07/19 06:33:05;;;;;;;13.38;5.68;;;;;;;18.87;83.85;101235.88;5106506;28;20047;-65
2023/07/19 06:35:33;;;;;;;14.50;7.75;;;;;;;18.85;84.09;101229.84;5110893;28;20043;-65
2023/07/19 06:38:01;;;;;;;13.32;5.72;;;;;;;18.86;83.99;101234.25;5112862;28;20058;-65
2023/07/19 06:40:29;;;;;;;23.92;5.35;;;;;;;18.86;84.09;101232.28;5113868;28;20062;-63
2023/07/19 06:42:57;;;;;;;11.02;4.97;;;;;;;18.87;83.77;101224.81;5116709;28;20410;-64
2023/07/19 06:45:25;;;;;;;11.48;4.65;;;;;;;18.88;83.59;101232.78;5115449;28;20494;-63
2023/07/19 06:47:53;;;;;;;13.65;4.50;;;;;;;18.91;83.35;101228.59;5098271;28;20047;-64
2023/07/19 06:50:21;;;;;;;12.40;4.72;;;;;;;18.93;83.44;101232.66;5115224;28;20051;-64
2023/07/19 06:52:49;;;;;;;13.07;5.32;;;;;;;18.98;83.28;101234.50;5115613;28;20375;-63
2023/07/19 06:55:17;;;;;;;10.45;5.13;;;;;;;19.01;83.33;101230.28;5116777;28;20058;-63
2023/07/19 06:57:45;;;;;;;11.63;5.45;;;;;;;19.05;82.66;101229.34;5098667;28;20043;-64
2023/07/19 07:00:13;;;;;;;14.10;5.40;;;;;;;19.08;82.83;101223.16;5115920;28;20040;-62
2023/07/19 07:02:41;;;;;;;12.30;4.47;;;;;;;19.13;82.73;101225.81;5115442;28;20051;-64
2023/07/19 07:05:13;;;;;;;9.88;4.47;;;;;;;19.18;82.41;101222.09;5116579;28;20498;-65
2023/07/19 07:07:41;;;;;;;11.05;5.35;;;;;;;19.23;81.54;101223.91;5116447;28;20040;-64
2023/07/19 07:10:09;;;;;;;10.82;4.97;;;;;;;19.23;81.38;101226.66;5115916;28;20044;-62
2023/07/19 07:12:37;;;;;;;12.48;4.63;;;;;;;19.24;81.00;101225.53;5116101;28;20556;-63
2023/07/19 07:15:06;;;;;;;12.68;4.63;;;;;;;19.27;80.39;101235.97;5116628;28;20047;-65
2023/07/19 07:17:34;;;;;;;12.07;4.80;;;;;;;19.29;80.69;101233.66;5116570;28;20052;-65
2023/07/19 07:20:02;;;;;;;13.07;4.38;;;;;;;19.32;80.54;101231.09;5115992;28;20070;-64
2023/07/19 07:22:30;;;;;;;14.00;4.40;;;;;;;19.36;80.53;101234.03;5114966;28;20051;-64
2023/07/19 07:24:57;;;;;;;9.60;4.78;;;;;;;19.41;80.59;101238.63;5116063;28;20042;-64
2023/07/19 07:27:27;;;;;;;11.43;4.50;;;;;;;19.41;80.39;101236.69;5115064;28;20063;-65
2023/07/19 07:29:56;;;;;;;11.32;4.57;;;;;;;19.41;80.56;101236.69;5116252;28;20062;-63
2023/07/19 07:32:24;;;;;;;14.13;5.38;;;;;;;19.40;79.33;101223.97;5114394;28;20047;-68
2023/07/19 07:34:52;;;;;;;10.13;4.28;;;;;;;19.38;79.49;101226.25;5116046;28;20055;-65
2023/07/19 07:37:19;;;;;;;10.57;4.47;;;;;;;19.37;79.39;101224.63;5114885;28;20054;-64
2023/07/19 07:39:47;;;;;;;11.00;4.60;;;;;;;19.38;80.10;101231.78;5114545;28;20508;-64
2023/07/19 07:42:15;;;;;;;11.98;4.38;;;;;;;19.39;80.60;101238.94;5116013;28;20051;-65
2023/07/19 07:44:43;;;;;;;11.77;4.80;;;;;;;19.37;80.74;101228.19;5098130;28;20051;-65
2023/07/19 07:47:14;;;;;;;13.95;4.85;;;;;;;19.38;80.70;101231.78;5114929;28;20043;-65
2023/07/19 07:49:43;;;;;;;11.88;4.95;;;;;;;19.38;80.58;101226.25;5114520;28;20515;-63
2023/07/19 07:52:14;;;;;;;10.73;4.80;;;;;;;19.40;80.83;101231.47;5115875;28;20057;-64
2023/07/19 07:54:42;;;;;;;12.38;4.25;;;;;;;19.40;80.74;101223.97;5115577;28;20049;-63
2023/07/19 07:57:10;;;;;;;11.38;4.68;;;;;;;19.42;80.79;101223.69;5116054;28;20047;-63
2023/07/19 07:59:38;;;;;;;10.77;4.50;;;;;;;19.43;81.16;101217.81;5114250;28;20039;-64
2023/07/19 08:02:08;;;;;;;11.80;4.22;;;;;;;19.46;81.55;101217.19;5097877;28;20040;-64
2023/07/19 08:04:36;;;;;;;14.07;4.43;;;;;;;19.49;81.19;101211.03;5115305;28;20108;-64
2023/07/19 08:07:04;;;;;;;12.00;4.65;;;;;;;19.51;80.81;101207.97;5114888;28;20047;-64
2023/07/19 08:09:33;;;;;;;11.77;5.13;;;;;;;19.52;80.60;101213.16;5115400;28;20058;-63
2023/07/19 08:12:01;;;;;;;13.35;5.20;;;;;;;19.55;80.28;101220.81;5114103;28;20047;-62
2023/07/19 08:14:29;;;;;;;13.25;4.90;;;;;;;19.57;80.15;101213.00;5097174;28;20051;-64
2023/07/19 08:16:57;;;;;;;9.88;4.40;;;;;;;19.59;80.81;101216.25;5114914;28;20043;-64
2023/07/19 08:19:29;;;;;;;15.52;5.75;;;;;;;19.59;80.31;101209.91;5113624;28;20103;-65
2023/07/19 08:22:03;;;;;;;11.05;4.80;;;;;;;19.62;80.68;101203.75;5115391;28;20497;-65
2023/07/19 08:24:31;;;;;;;11.35;4.63;;;;;;;19.67;80.87;101202.78;5116163;28;20058;-63
2023/07/19 08:26:59;;;;;;;12.40;4.65;;;;;;;19.70;80.57;101208.53;5121390;28;20104;-59
2023/07/19 08:29:27;;;;;;;12.07;4.25;;;;;;;19.74;80.32;101200.41;5127251;28;20170;-63
2023/07/19 08:31:55;;;;;;;13.93;4.70;;;;;;;19.79;79.18;101203.00;5120715;28;20106;-64
2023/07/19 08:34:23;;;;;;;10.27;4.28;;;;;;;19.82;78.38;101198.78;5120351;28;20118;-62
2023/07/19 08:36:51;;;;;;;12.80;4.60;;;;;;;19.82;77.87;101196.88;5122089;28;20096;-63
2023/07/19 08:39:19;;;;;;;11.10;4.07;;;;;;;19.84;77.57;101197.34;5122352;28;20103;-64
2023/07/19 08:41:47;;;;;;;8.77;3.75;;;;;;;19.85;76.70;101190.69;5127851;28;20091;-63
2023/07/19 08:44:15;;;;;;;11.35;4.28;;;;;;;19.87;77.25;101191.19;5105891;28;20422;-64
2023/07/19 08:46:43;;;;;;;14.35;4.10;;;;;;;19.90;76.81;101204.34;5127000;28;20168;-61
2023/07/19 08:49:11;;;;;;;14.68;4.40;;;;;;;19.94;75.96;101198.97;5125457;28;20190;-64
2023/07/19 08:51:40;;;;;;;7.53;3.67;;;;;;;19.95;75.83;101206.97;5119472;28;20092;-63
2023/07/19 08:54:08;;;;;;;8.15;3.60;;;;;;;19.97;75.34;101201.13;5098266;28;20043;-64
2023/07/19 08:56:36;;;;;;;9.60;3.35;;;;;;;19.96;74.29;101205.84;5113276;28;20436;-64
2023/07/19 09:05:39;;;;;;;16.00;3.17;;;;;;;19.98;73.78;101199.97;5093310;28;20052;-64
2023/07/19 09:14:36;;;;;;;9.27;3.65;;;;;;;20.18;75.14;101198.56;5108726;28;20059;-64
2023/07/19 09:17:06;;;;;;;9.95;3.58;;;;;;;20.22;74.96;101203.09;5114385;28;20055;-65
2023/07/19 09:19:38;;;;;;;9.00;3.85;;;;;;;20.28;74.93;101203.78;5114123;28;20055;-64
2023/07/19 09:22:06;;;;;;;8.10;3.50;;;;;;;20.32;75.25;101203.91;5113903;28;20039;-63
2023/07/19 09:24:34;;;;;;;12.82;4.10;;;;;;;20.32;75.47;101196.44;5114322;28;20058;-64
2023/07/19 09:27:02;;;;;;;9.82;4.03;;;;;;;20.32;76.05;101199.19;5112710;28;20484;-63
2023/07/19 09:29:30;;;;;;;12.05;3.97;;;;;;;20.33;76.12;101192.53;5113069;28;20043;-64
2023/07/19 09:32:00;;;;;;;8.73;3.65;;;;;;;20.35;76.90;101195.00;5114117;28;20581;-66
2023/07/19 09:34:36;;;;;;;8.75;3.90;;;;;;;20.36;78.08;101205.72;5079949;28;20054;-64
2023/07/19 09:37:04;;;;;;;8.93;3.72;;;;;;;20.38;78.25;101203.44;5113206;28;20054;-63
2023/07/19 09:39:35;;;;;;;12.73;3.90;;;;;;;20.39;77.95;101201.47;5114656;28;20499;-63
2023/07/19 09:42:03;;;;;;;8.88;4.13;;;;;;;20.39;78.53;101201.47;5114393;28;20052;-64
2023/07/19 09:44:33;;;;;;;9.57;3.70;;;;;;;20.41;79.08;101201.97;5116738;28;20460;-65
2023/07/19 09:47:02;;;;;;;9.45;3.65;;;;;;;20.42;79.46;101204.44;5113140;28;20367;-64
2023/07/19 09:49:45;;;;;;;14.95;3.38;;;;;;;20.45;78.46;101202.16;5114107;28;20053;-64
2023/07/19 09:57:38;;;;;;;8.43;3.13;;;;;;;20.42;78.22;101195.31;5093634;28;20476;-63
2023/07/19 10:00:07;;;;;;;8.15;3.08;;;;;;;20.42;78.89;101201.66;5092651;28;20039;-64
2023/07/19 10:02:35;;;;;;;7.57;3.03;;;;;;;20.40;79.12;101201.16;5112737;28;20061;-64
2023/07/19 10:05:08;;;;;;;10.10;3.10;;;;;;;20.40;79.64;101195.63;5114303;28;20396;-64
2023/07/19 10:07:37;;;;;;;9.68;3.40;;;;;;;20.38;79.47;101203.44;5095843;28;20046;-64
2023/07/19 10:10:21;;;;;;;7.30;3.30;;;;;;;20.45;79.83;101204.94;5113665;28;20051;-62
2023/07/19 10:12:50;;;;;;;10.77;3.53;;;;;;;20.53;79.80;101199.38;5114266;28;20039;-64
2023/07/19 10:15:20;;;;;;;9.43;3.58;;;;;;;20.61;79.46;101195.00;5113953;28;20048;-64
2023/07/19 10:17:58;;;;;;;11.25;3.47;;;;;;;20.66;78.08;101192.06;5112361;28;20082;-63
2023/07/19 10:20:34;;;;;;;7.03;2.80;;;;;;;20.70;77.06;101193.03;5112717;28;20056;-65
2023/07/19 10:23:04;;;;;;;8.65;3.30;;;;;;;20.69;77.46;101191.41;5098253;28;20050;-63
2023/07/19 10:25:36;;;;;;;8.27;3.33;;;;;;;20.67;77.50;101190.94;5117922;28;20047;-63
2023/07/19 10:28:09;;;;;;;6.90;3.13;;;;;;;20.66;77.57;101192.06;5117184;28;20062;-63
2023/07/19 10:30:50;;;;;;;8.73;3.40;;;;;;;20.67;77.46;101192.88;5115930;28;20492;-64
2023/07/19 10:33:22;;;;;;;9.48;3.38;;;;;;;20.68;75.74;101194.50;5116599;28;20043;-64
2023/07/19 10:35:55;;;;;;;8.00;2.90;;;;;;;20.71;73.76;101193.84;5115999;28;20051;-64
2023/07/19 10:38:28;;;;;;;6.88;3.08;;;;;;;20.75;71.70;101194.81;5116796;28;20104;-63
2023/07/19 10:41:05;;;;;;;7.00;2.65;;;;;;;20.77;70.90;101193.34;5117134;28;20386;-65
2023/07/19 10:43:34;;;;;;;7.97;3.05;;;;;;;20.81;71.21;101193.53;5116052;28;20246;-63
2023/07/19 10:46:18;;;;;;;8.87;3.40;;;;;;;20.87;70.67;101186.66;5116132;28;20043;-64
2023/07/19 10:48:53;;;;;;;7.13;2.65;;;;;;;20.92;70.39;101191.19;5116645;28;20313;-64
2023/07/19 10:51:21;;;;;;;6.13;2.80;;;;;;;21.00;70.24;101187.63;5116851;28;20088;-63
2023/07/19 10:53:59;;;;;;;6.95;2.90;;;;;;;21.00;67.67;101191.19;5115884;28;20047;-64
2023/07/19 10:56:28;;;;;;;6.32;2.95;;;;;;;21.04;67.70;101185.78;5115830;28;20047;-65
2023/07/19 10:58:59;;;;;;;7.82;3.00;;;;;;;21.04;68.61;101174.72;5098034;28;20407;-68
2023/07/19 11:01:29;;;;;;;9.68;3.15;;;;;;;21.09;67.79;101185.63;5115658;28;20043;-65
2023/07/19 11:04:03;;;;;;;6.53;3.10;;;;;;;21.13;67.82;101180.25;5116655;28;20052;-65
2023/07/19 11:06:38;;;;;;;6.57;2.83;;;;;;;21.12;67.47;101181.38;5115752;28;20051;-62
2023/07/19 11:09:07;;;;;;;8.02;3.00;;;;;;;21.11;67.05;101197.19;5116545;27;20048;-64
2023/07/19 11:11:38;;;;;;;7.15;2.65;;;;;;;21.10;66.51;101187.25;5115635;28;20062;-63
2023/07/19 11:14:07;;;;;;;5.18;2.25;;;;;;;21.12;66.85;101181.38;5098690;28;20057;-64
2023/07/19 11:16:35;;;;;;;10.90;2.67;;;;;;;21.14;66.74;101185.47;5115671;28;20050;-63
2023/07/19 11:19:04;;;;;;;8.57;3.03;;;;;;;21.15;65.89;101187.06;5116155;28;20103;-63
2023/07/19 11:21:32;;;;;;;7.32;2.97;;;;;;;21.14;65.47;101185.47;5114904;28;20096;-65
2023/07/19 11:24:01;;;;;;;6.82;2.70;;;;;;;21.13;66.17;101185.78;5116112;28;20051;-63
2023/07/19 11:26:29;;;;;;;5.63;2.60;;;;;;;21.11;66.34;101191.63;5115340;28;20053;-65
2023/07/19 11:28:58;;;;;;;7.18;2.72;;;;;;;21.11;66.57;101180.56;5115557;28;20418;-65
2023/07/19 11:31:27;;;;;;;5.25;2.88;;;;;;;21.11;67.16;101183.31;5115203;28;20048;-64
2023/07/19 11:34:00;;;;;;;4.97;2.45;;;;;;;21.13;67.44;101189.34;5115935;28;20444;-64
2023/07/19 11:36:29;;;;;;;7.63;2.90;;;;;;;21.16;67.30;101185.91;5116011;28;20065;-65
2023/07/19 11:38:57;;;;;;;7.15;2.75;;;;;;;21.16;66.78;101176.78;5117131;28;20044;-64
2023/07/19 11:41:25;;;;;;;7.38;2.60;;;;;;;21.21;67.04;101171.91;5097818;28;20088;-64
2023/07/19 11:43:53;;;;;;;6.25;2.53;;;;;;;21.33;66.95;101178.69;5116223;28;20480;-64
2023/07/19 11:46:21;;;;;;;5.43;2.47;;;;;;;21.42;66.64;101179.50;5115146;28;20054;-65
2023/07/19 11:48:50;;;;;;;3.13;2.13;;;;;;;21.47;65.82;101177.34;5114624;28;20055;-64